createdAt,value
2018-01-06T00:00:13.606Z,844.60
2018-01-06T00:01:13.477Z,844.56
2018-01-06T00:02:13.377Z,844.58
2018-01-06T00:03:13.220Z,844.58
2018-01-06T00:04:13.090Z,844.57
2018-01-06T00:05:12.961Z,844.57
2018-01-06T00:06:12.833Z,844.54
2018-01-06T00:07:12.700Z,844.55
2018-01-06T00:08:12.572Z,844.56
2018-01-06T00:09:12.442Z,844.55
2018-01-06T00:10:12.316Z,844.60
2018-01-06T00:11:12.184Z,844.62
2018-01-06T00:12:12.054Z,844.60
2018-01-06T00:13:11.927Z,844.57
2018-01-06T00:14:11.795Z,844.56
2018-01-06T00:15:11.665Z,844.51
2018-01-06T00:16:11.538Z,844.53
2018-01-06T00:17:11.407Z,844.51
2018-01-06T00:18:11.278Z,844.51
2018-01-06T00:19:11.150Z,844.52
2018-01-06T00:20:11.018Z,844.50
2018-01-06T00:21:10.889Z,844.53
2018-01-06T00:22:10.762Z,844.55
2018-01-06T00:23:10.635Z,844.54
2018-01-06T00:24:10.503Z,844.52
2018-01-06T00:25:10.373Z,844.57
2018-01-06T00:26:10.248Z,844.55
2018-01-06T00:27:10.114Z,844.51
2018-01-06T00:28:09.986Z,844.54
2018-01-06T00:29:09.856Z,844.54
2018-01-06T00:30:09.725Z,844.49
2018-01-06T00:31:09.595Z,844.49
2018-01-06T00:32:09.470Z,844.48
2018-01-06T00:33:09.337Z,844.48
2018-01-06T00:34:09.210Z,844.53
2018-01-06T00:35:09.080Z,844.53
2018-01-06T00:36:08.950Z,844.54
2018-01-06T00:37:08.819Z,844.54
2018-01-06T00:38:08.690Z,844.54
2018-01-06T00:39:08.562Z,844.51
2018-01-06T00:40:08.432Z,844.50
2018-01-06T00:41:08.306Z,844.49
2018-01-06T00:42:08.174Z,844.49
2018-01-06T00:43:08.043Z,844.44
2018-01-06T00:44:07.914Z,844.45
2018-01-06T00:45:07.785Z,844.45
2018-01-06T00:46:07.657Z,844.47
2018-01-06T00:47:07.527Z,844.46
2018-01-06T00:48:07.399Z,844.44
2018-01-06T00:49:07.268Z,844.47
2018-01-06T00:50:07.139Z,844.48
2018-01-06T00:51:07.007Z,844.52
2018-01-06T00:52:06.878Z,844.49
2018-01-06T00:53:06.748Z,844.48
2018-01-06T00:54:06.620Z,844.49
2018-01-06T00:55:06.492Z,844.45
2018-01-06T00:56:06.362Z,844.49
2018-01-06T00:57:06.232Z,844.50
2018-01-06T00:58:06.103Z,844.51
2018-01-06T00:59:05.975Z,844.51
2018-01-06T01:00:05.861Z,844.45
2018-01-06T01:01:05.717Z,844.47
2018-01-06T01:02:05.584Z,844.48
2018-01-06T01:03:05.456Z,844.52
2018-01-06T01:04:05.327Z,844.53
2018-01-06T01:05:05.196Z,844.56
2018-01-06T01:06:05.078Z,844.52
2018-01-06T01:07:04.939Z,844.53
2018-01-06T01:08:04.809Z,844.52
2018-01-06T01:09:04.680Z,844.52
2018-01-06T01:10:04.598Z,844.54
2018-01-06T01:11:04.421Z,844.57
2018-01-06T01:12:04.291Z,844.50
2018-01-06T01:13:04.162Z,844.53
2018-01-06T01:14:04.033Z,844.47
2018-01-06T01:15:03.902Z,844.47
2018-01-06T01:16:03.772Z,844.45
2018-01-06T01:17:03.645Z,844.44
2018-01-06T01:18:03.513Z,844.48
2018-01-06T01:19:03.386Z,844.53
2018-01-06T01:20:03.257Z,844.58
2018-01-06T01:21:03.127Z,844.56
2018-01-06T01:22:02.995Z,844.56
2018-01-06T01:23:02.868Z,844.54
2018-01-06T01:24:02.741Z,844.59
2018-01-06T01:25:02.611Z,844.55
2018-01-06T01:26:02.479Z,844.53
2018-01-06T01:27:02.352Z,844.52
2018-01-06T01:28:02.221Z,844.48
2018-01-06T01:29:02.091Z,844.53
2018-01-06T01:30:01.962Z,844.51
2018-01-06T01:31:01.833Z,844.54
2018-01-06T01:32:01.706Z,844.56
2018-01-06T01:33:01.574Z,844.54
2018-01-06T01:34:01.444Z,844.55
2018-01-06T01:35:01.315Z,844.56
2018-01-06T01:36:01.184Z,844.56
2018-01-06T01:37:01.056Z,844.55
2018-01-06T01:38:00.926Z,844.56
2018-01-06T01:39:00.798Z,844.58
2018-01-06T01:40:00.669Z,844.60
2018-01-06T01:41:00.538Z,844.58
2018-01-06T01:42:00.416Z,844.55
2018-01-06T01:43:00.286Z,844.59
2018-01-06T01:44:00.152Z,844.63
2018-01-06T01:45:00.036Z,844.65
2018-01-06T01:45:59.891Z,844.70
2018-01-06T01:46:59.766Z,844.66
2018-01-06T01:47:59.635Z,844.64
2018-01-06T01:48:59.503Z,844.60
2018-01-06T01:49:59.376Z,844.63
2018-01-06T01:50:59.246Z,844.57
2018-01-06T01:51:59.116Z,844.63
2018-01-06T01:52:58.986Z,844.66
2018-01-06T01:53:58.858Z,844.65
2018-01-06T01:54:58.729Z,844.66
2018-01-06T01:55:58.600Z,844.64
2018-01-06T01:56:58.469Z,844.65
2018-01-06T01:57:58.339Z,844.66
2018-01-06T01:58:58.212Z,844.70
2018-01-06T01:59:58.082Z,844.68
2018-01-06T02:00:57.951Z,844.67
2018-01-06T02:01:57.822Z,844.62
2018-01-06T02:02:57.696Z,844.63
2018-01-06T02:03:57.565Z,844.68
2018-01-06T02:04:57.438Z,844.70
2018-01-06T02:05:57.309Z,844.69
2018-01-06T02:06:57.179Z,844.70
2018-01-06T02:07:57.048Z,844.71
2018-01-06T02:08:56.921Z,844.75
2018-01-06T02:09:56.788Z,844.74
2018-01-06T02:10:56.666Z,844.74
2018-01-06T02:11:56.533Z,844.73
2018-01-06T02:12:56.402Z,844.73
2018-01-06T02:13:56.272Z,844.69
2018-01-06T02:14:56.145Z,844.70
2018-01-06T02:15:56.014Z,844.66
2018-01-06T02:16:55.886Z,844.64
2018-01-06T02:17:55.755Z,844.65
2018-01-06T02:18:55.665Z,844.61
2018-01-06T02:19:55.496Z,844.64
2018-01-06T02:20:55.376Z,844.56
2018-01-06T02:21:55.239Z,844.53
2018-01-06T02:22:55.110Z,844.54
2018-01-06T02:23:54.981Z,844.56
2018-01-06T02:24:54.854Z,844.58
2018-01-06T02:25:54.722Z,844.54
2018-01-06T02:26:54.590Z,844.54
2018-01-06T02:27:54.463Z,844.52
2018-01-06T02:28:54.333Z,844.55
2018-01-06T02:29:54.210Z,844.56
2018-01-06T02:30:54.079Z,844.53
2018-01-06T02:31:53.947Z,844.47
2018-01-06T02:32:53.819Z,844.54
2018-01-06T02:33:53.687Z,844.48
2018-01-06T02:34:53.558Z,844.46
2018-01-06T02:35:53.431Z,844.42
2018-01-06T02:36:53.298Z,844.46
2018-01-06T02:37:53.171Z,844.47
2018-01-06T02:38:53.042Z,844.40
2018-01-06T02:39:52.912Z,844.38
2018-01-06T02:40:52.781Z,844.38
2018-01-06T02:41:52.653Z,844.34
2018-01-06T02:42:52.522Z,844.35
2018-01-06T02:43:52.393Z,844.33
2018-01-06T02:44:52.262Z,844.34
2018-01-06T02:45:52.139Z,844.33
2018-01-06T02:46:52.009Z,844.29
2018-01-06T02:47:51.876Z,844.31
2018-01-06T02:48:51.745Z,844.25
2018-01-06T02:49:51.616Z,844.26
2018-01-06T02:50:51.487Z,844.31
2018-01-06T02:51:51.359Z,844.36
2018-01-06T02:52:51.230Z,844.31
2018-01-06T02:53:51.099Z,844.33
2018-01-06T02:54:50.969Z,844.33
2018-01-06T02:55:50.839Z,844.32
2018-01-06T02:56:50.711Z,844.28
2018-01-06T02:57:50.580Z,844.26
2018-01-06T02:58:50.455Z,844.28
2018-01-06T02:59:50.323Z,844.26
2018-01-06T03:00:50.193Z,844.28
2018-01-06T03:01:50.065Z,844.20
2018-01-06T03:02:49.936Z,844.22
2018-01-06T03:03:49.806Z,844.22
2018-01-06T03:04:49.674Z,844.26
2018-01-06T03:05:49.547Z,844.29
2018-01-06T03:06:49.417Z,844.31
2018-01-06T03:07:49.287Z,844.27
2018-01-06T03:08:49.159Z,844.28
2018-01-06T03:09:49.031Z,844.26
2018-01-06T03:10:48.902Z,844.28
2018-01-06T03:11:48.805Z,844.25
2018-01-06T03:12:48.639Z,844.23
2018-01-06T03:13:48.512Z,844.24
2018-01-06T03:14:48.382Z,844.19
2018-01-06T03:15:48.254Z,844.20
2018-01-06T03:16:48.120Z,844.16
2018-01-06T03:17:47.992Z,844.13
2018-01-06T03:18:47.863Z,844.12
2018-01-06T03:19:47.734Z,844.11
2018-01-06T03:20:47.604Z,844.12
2018-01-06T03:21:47.473Z,844.11
2018-01-06T03:22:47.350Z,844.11
2018-01-06T03:23:47.214Z,844.13
2018-01-06T03:24:47.086Z,844.13
2018-01-06T03:25:46.960Z,844.13
2018-01-06T03:26:46.831Z,844.15
2018-01-06T03:27:46.702Z,844.14
2018-01-06T03:28:46.565Z,844.19
2018-01-06T03:29:46.438Z,844.19
2018-01-06T03:30:46.309Z,844.23
2018-01-06T03:31:46.181Z,844.25
2018-01-06T03:32:46.048Z,844.27
2018-01-06T03:33:45.920Z,844.22
2018-01-06T03:34:45.792Z,844.16
2018-01-06T03:35:45.663Z,844.15
2018-01-06T03:36:45.530Z,844.15
2018-01-06T03:37:45.402Z,844.13
2018-01-06T03:38:45.271Z,844.15
2018-01-06T03:39:45.146Z,844.16
2018-01-06T03:40:45.015Z,844.18
2018-01-06T03:41:44.883Z,844.18
2018-01-06T03:42:44.758Z,844.24
2018-01-06T03:43:44.623Z,844.22
2018-01-06T03:44:44.495Z,844.24
2018-01-06T03:45:44.368Z,844.24
2018-01-06T03:46:44.238Z,844.23
2018-01-06T03:47:44.108Z,844.27
2018-01-06T03:48:43.981Z,844.24
2018-01-06T03:49:43.850Z,844.27
2018-01-06T03:50:43.719Z,844.29
2018-01-06T03:51:43.592Z,844.31
2018-01-06T03:52:43.461Z,844.32
2018-01-06T03:53:43.330Z,844.30
2018-01-06T03:54:43.202Z,844.35
2018-01-06T03:55:43.078Z,844.33
2018-01-06T03:56:42.941Z,844.35
2018-01-06T03:57:42.814Z,844.34
2018-01-06T03:58:42.683Z,844.36
2018-01-06T03:59:42.553Z,844.34
2018-01-06T04:00:42.423Z,844.33
2018-01-06T04:01:42.297Z,844.36
2018-01-06T04:02:42.165Z,844.39
2018-01-06T04:03:42.037Z,844.41
2018-01-06T04:04:41.907Z,844.39
2018-01-06T04:05:41.778Z,844.41
2018-01-06T04:06:41.647Z,844.36
2018-01-06T04:07:41.518Z,844.38
2018-01-06T04:08:41.389Z,844.39
2018-01-06T04:09:41.258Z,844.39
2018-01-06T04:10:41.128Z,844.45
2018-01-06T04:11:41.001Z,844.44
2018-01-06T04:12:40.869Z,844.40
2018-01-06T04:13:40.744Z,844.40
2018-01-06T04:14:40.613Z,844.41
2018-01-06T04:15:40.483Z,844.40
2018-01-06T04:16:40.354Z,844.40
2018-01-06T04:17:40.224Z,844.43
2018-01-06T04:18:40.092Z,844.42
2018-01-06T04:19:39.969Z,844.45
2018-01-06T04:20:39.835Z,844.48
2018-01-06T04:21:39.705Z,844.47
2018-01-06T04:22:39.574Z,844.42
2018-01-06T04:23:39.446Z,844.40
2018-01-06T04:24:39.316Z,844.38
2018-01-06T04:25:39.185Z,844.41
2018-01-06T04:26:39.055Z,844.40
2018-01-06T04:27:38.928Z,844.44
2018-01-06T04:28:38.795Z,844.42
2018-01-06T04:29:38.667Z,844.45
2018-01-06T04:30:38.538Z,844.42
2018-01-06T04:31:38.409Z,844.44
2018-01-06T04:32:38.277Z,844.45
2018-01-06T04:33:38.150Z,844.48
2018-01-06T04:34:38.018Z,844.47
2018-01-06T04:35:37.891Z,844.47
2018-01-06T04:36:37.762Z,844.46
2018-01-06T04:37:37.630Z,844.47
2018-01-06T04:38:37.501Z,844.50
2018-01-06T04:39:37.371Z,844.51
2018-01-06T04:40:37.242Z,844.52
2018-01-06T04:41:37.112Z,844.52
2018-01-06T04:42:36.984Z,844.51
2018-01-06T04:43:36.852Z,844.51
2018-01-06T04:44:36.723Z,844.47
2018-01-06T04:45:36.594Z,844.52
2018-01-06T04:46:36.466Z,844.48
2018-01-06T04:47:36.339Z,844.50
2018-01-06T04:48:36.205Z,844.51
2018-01-06T04:49:36.075Z,844.57
2018-01-06T04:50:35.945Z,844.58
2018-01-06T04:51:35.817Z,844.57
2018-01-06T04:52:35.686Z,844.62
2018-01-06T04:53:35.558Z,844.64
2018-01-06T04:54:35.427Z,844.61
2018-01-06T04:55:35.297Z,844.59
2018-01-06T04:56:35.172Z,844.60
2018-01-06T04:57:35.038Z,844.58
2018-01-06T04:58:34.908Z,844.56
2018-01-06T04:59:34.779Z,844.60
2018-01-06T05:00:34.651Z,844.64
2018-01-06T05:01:34.522Z,844.65
2018-01-06T05:02:34.391Z,844.63
2018-01-06T05:03:34.261Z,844.67
2018-01-06T05:04:34.131Z,844.68
2018-01-06T05:05:34.002Z,844.73
2018-01-06T05:06:33.870Z,844.73
2018-01-06T05:07:33.742Z,844.75
2018-01-06T05:08:33.614Z,844.74
2018-01-06T05:09:33.482Z,844.73
2018-01-06T05:10:33.353Z,844.71
2018-01-06T05:11:33.224Z,844.72
2018-01-06T05:12:33.092Z,844.72
2018-01-06T05:13:32.964Z,844.71
2018-01-06T05:14:32.842Z,844.74
2018-01-06T05:15:32.706Z,844.73
2018-01-06T05:16:32.579Z,844.78
2018-01-06T05:17:32.448Z,844.77
2018-01-06T05:18:32.345Z,844.73
2018-01-06T05:19:32.188Z,844.73
2018-01-06T05:20:32.057Z,844.72
2018-01-06T05:21:31.927Z,844.71
2018-01-06T05:22:31.798Z,844.69
2018-01-06T05:23:31.669Z,844.65
2018-01-06T05:24:31.539Z,844.64
2018-01-06T05:25:31.408Z,844.63
2018-01-06T05:26:31.283Z,844.59
2018-01-06T05:27:31.152Z,844.60
2018-01-06T05:28:31.023Z,844.62
2018-01-06T05:29:30.892Z,844.60
2018-01-06T05:30:30.819Z,844.58
2018-01-06T05:31:30.634Z,844.59
2018-01-06T05:32:30.502Z,844.59
2018-01-06T05:33:30.374Z,844.59
2018-01-06T05:34:30.246Z,844.62
2018-01-06T05:35:30.117Z,844.63
2018-01-06T05:36:29.986Z,844.68
2018-01-06T05:37:29.855Z,844.70
2018-01-06T05:38:29.732Z,844.70
2018-01-06T05:39:29.597Z,844.68
2018-01-06T05:40:29.471Z,844.67
2018-01-06T05:41:29.343Z,844.70
2018-01-06T05:42:29.207Z,844.69
2018-01-06T05:43:29.081Z,844.65
2018-01-06T05:44:28.951Z,844.64
2018-01-06T05:45:28.821Z,844.64
2018-01-06T05:46:28.693Z,844.65
2018-01-06T05:47:28.561Z,844.61
2018-01-06T05:48:28.432Z,844.65
2018-01-06T05:49:28.302Z,844.65
2018-01-06T05:50:28.175Z,844.68
2018-01-06T05:51:28.045Z,844.73
2018-01-06T05:52:27.915Z,844.75
2018-01-06T05:53:27.788Z,844.71
2018-01-06T05:54:27.657Z,844.70
2018-01-06T05:55:27.527Z,844.69
2018-01-06T05:56:27.402Z,844.64
2018-01-06T05:57:27.272Z,844.65
2018-01-06T05:58:27.140Z,844.61
2018-01-06T05:59:27.010Z,844.58
2018-01-06T06:00:26.881Z,844.61
2018-01-06T06:01:26.754Z,844.59
2018-01-06T06:02:26.628Z,844.63
2018-01-06T06:03:26.494Z,844.69
2018-01-06T06:04:26.365Z,844.73
2018-01-06T06:05:26.234Z,844.72
2018-01-06T06:06:26.106Z,844.77
2018-01-06T06:07:25.979Z,844.77
2018-01-06T06:08:25.845Z,844.74
2018-01-06T06:09:25.720Z,844.69
2018-01-06T06:10:25.586Z,844.69
2018-01-06T06:11:25.459Z,844.69
2018-01-06T06:12:25.329Z,844.66
2018-01-06T06:13:25.204Z,844.68
2018-01-06T06:14:25.071Z,844.63
2018-01-06T06:15:24.943Z,844.60
2018-01-06T06:16:24.811Z,844.62
2018-01-06T06:17:24.681Z,844.66
2018-01-06T06:18:24.554Z,844.70
2018-01-06T06:19:24.431Z,844.66
2018-01-06T06:20:24.293Z,844.70
2018-01-06T06:21:24.170Z,844.66
2018-01-06T06:22:24.035Z,844.64
2018-01-06T06:23:23.907Z,844.63
2018-01-06T06:24:23.776Z,844.63
2018-01-06T06:25:23.649Z,844.62
2018-01-06T06:26:23.521Z,844.61
2018-01-06T06:27:23.390Z,844.66
2018-01-06T06:28:23.258Z,844.67
2018-01-06T06:29:23.131Z,844.67
2018-01-06T06:30:23.005Z,844.71
2018-01-06T06:31:22.871Z,844.71
2018-01-06T06:32:22.742Z,844.77
2018-01-06T06:33:22.613Z,844.74
2018-01-06T06:34:22.481Z,844.74
2018-01-06T06:35:22.355Z,844.73
2018-01-06T06:36:22.226Z,844.72
2018-01-06T06:37:22.100Z,844.68
2018-01-06T06:38:21.966Z,844.69
2018-01-06T06:39:21.838Z,844.65
2018-01-06T06:40:21.705Z,844.67
2018-01-06T06:41:21.580Z,844.68
2018-01-06T06:42:21.447Z,844.72
2018-01-06T06:43:21.323Z,844.72
2018-01-06T06:44:21.188Z,844.81
2018-01-06T06:45:21.062Z,844.80
2018-01-06T06:46:20.932Z,844.80
2018-01-06T06:47:20.804Z,844.80
2018-01-06T06:48:20.672Z,844.80
2018-01-06T06:49:20.541Z,844.81
2018-01-06T06:50:20.413Z,844.82
2018-01-06T06:51:20.284Z,844.85
2018-01-06T06:52:20.156Z,844.81
2018-01-06T06:53:20.026Z,844.79
2018-01-06T06:54:19.896Z,844.80
2018-01-06T06:55:19.767Z,844.79
2018-01-06T06:56:19.637Z,844.76
2018-01-06T06:57:19.512Z,844.78
2018-01-06T06:58:19.381Z,844.78
2018-01-06T06:59:19.252Z,844.76
2018-01-06T07:00:19.121Z,844.74
2018-01-06T07:01:18.994Z,844.77
2018-01-06T07:02:18.862Z,844.78
2018-01-06T07:03:18.733Z,844.80
2018-01-06T07:04:18.603Z,844.80
2018-01-06T07:05:18.472Z,844.88
2018-01-06T07:06:18.343Z,844.91
2018-01-06T07:07:18.213Z,844.94
2018-01-06T07:08:18.085Z,844.89
2018-01-06T07:09:17.954Z,844.93
2018-01-06T07:10:17.826Z,844.91
2018-01-06T07:11:17.696Z,844.92
2018-01-06T07:12:17.569Z,844.87
2018-01-06T07:13:17.437Z,844.93
2018-01-06T07:14:17.309Z,844.95
2018-01-06T07:15:17.184Z,845.02
2018-01-06T07:16:17.050Z,845.01
2018-01-06T07:17:16.923Z,845.05
2018-01-06T07:18:16.794Z,845.05
2018-01-06T07:19:16.666Z,845.09
2018-01-06T07:20:16.536Z,845.12
2018-01-06T07:21:16.405Z,845.14
2018-01-06T07:22:16.275Z,845.15
2018-01-06T07:23:16.148Z,845.16
2018-01-06T07:24:16.028Z,845.24
2018-01-06T07:25:15.889Z,845.24
2018-01-06T07:26:15.761Z,845.27
2018-01-06T07:27:15.634Z,845.30
2018-01-06T07:28:15.504Z,845.23
2018-01-06T07:29:15.372Z,845.19
2018-01-06T07:30:15.247Z,845.21
2018-01-06T07:31:15.117Z,845.20
2018-01-06T07:32:14.988Z,845.27
2018-01-06T07:33:14.858Z,845.30
2018-01-06T07:34:14.730Z,845.35
2018-01-06T07:35:14.605Z,845.36
2018-01-06T07:36:14.471Z,845.34
2018-01-06T07:37:14.343Z,845.40
2018-01-06T07:38:14.214Z,845.43
2018-01-06T07:39:14.087Z,845.44
2018-01-06T07:40:13.957Z,845.44
2018-01-06T07:41:13.828Z,845.41
2018-01-06T07:42:13.699Z,845.43
2018-01-06T07:43:13.573Z,845.40
2018-01-06T07:44:13.444Z,845.45
2018-01-06T07:45:13.313Z,845.45
2018-01-06T07:46:13.189Z,845.47
2018-01-06T07:47:13.058Z,845.47
2018-01-06T07:48:12.927Z,845.48
2018-01-06T07:49:12.800Z,845.51
2018-01-06T07:50:12.668Z,845.52
2018-01-06T07:51:12.542Z,845.52
2018-01-06T07:52:12.414Z,845.53
2018-01-06T07:53:12.284Z,845.55
2018-01-06T07:54:12.271Z,845.51
2018-01-06T07:55:12.029Z,845.56
2018-01-06T07:56:11.900Z,845.52
2018-01-06T07:57:11.771Z,845.62
2018-01-06T07:58:11.644Z,845.56
2018-01-06T07:59:11.514Z,845.54
2018-01-06T08:00:11.395Z,845.60
2018-01-06T08:01:11.261Z,845.58
2018-01-06T08:02:11.132Z,845.61
2018-01-06T08:03:11.000Z,845.61
2018-01-06T08:04:10.871Z,845.58
2018-01-06T08:05:10.746Z,845.58
2018-01-06T08:06:10.617Z,845.63
2018-01-06T08:07:10.494Z,845.62
2018-01-06T08:08:10.361Z,845.62
2018-01-06T08:09:10.234Z,845.63
2018-01-06T08:10:10.106Z,845.63
2018-01-06T08:11:09.979Z,845.66
2018-01-06T08:12:09.850Z,845.64
2018-01-06T08:13:09.722Z,845.66
2018-01-06T08:14:09.596Z,845.64
2018-01-06T08:15:09.465Z,845.68
2018-01-06T08:16:09.340Z,845.72
2018-01-06T08:17:09.213Z,845.74
2018-01-06T08:18:09.086Z,845.72
2018-01-06T08:19:08.956Z,845.74
2018-01-06T08:20:08.832Z,845.71
2018-01-06T08:21:08.707Z,845.70
2018-01-06T08:22:08.573Z,845.67
2018-01-06T08:23:08.446Z,845.64
2018-01-06T08:24:08.316Z,845.68
2018-01-06T08:25:08.192Z,845.69
2018-01-06T08:26:08.064Z,845.66
2018-01-06T08:27:07.936Z,845.70
2018-01-06T08:28:07.808Z,845.71
2018-01-06T08:29:07.682Z,845.71
2018-01-06T08:30:07.552Z,845.74
2018-01-06T08:31:07.425Z,845.73
2018-01-06T08:32:07.295Z,845.72
2018-01-06T08:33:07.202Z,845.69
2018-01-06T08:34:07.042Z,845.68
2018-01-06T08:35:06.913Z,845.69
2018-01-06T08:36:06.783Z,845.68
2018-01-06T08:37:06.659Z,845.67
2018-01-06T08:38:06.530Z,845.69
2018-01-06T08:39:06.405Z,845.65
2018-01-06T08:40:06.322Z,845.66
2018-01-06T08:41:06.149Z,845.67
2018-01-06T08:42:06.021Z,845.69
2018-01-06T08:43:05.891Z,845.69
2018-01-06T08:44:05.763Z,845.70
2018-01-06T08:45:05.636Z,845.70
2018-01-06T08:46:05.509Z,845.70
2018-01-06T08:47:05.380Z,845.78
2018-01-06T08:48:05.253Z,845.74
2018-01-06T08:49:05.125Z,845.74
2018-01-06T08:50:04.996Z,845.71
2018-01-06T08:51:04.871Z,845.71
2018-01-06T08:52:04.740Z,845.67
2018-01-06T08:53:04.616Z,845.75
2018-01-06T08:54:04.485Z,845.77
2018-01-06T08:55:04.359Z,845.76
2018-01-06T08:56:04.233Z,845.73
2018-01-06T08:57:04.102Z,845.76
2018-01-06T08:58:03.978Z,845.78
2018-01-06T08:59:03.846Z,845.76
2018-01-06T09:00:03.720Z,845.78
2018-01-06T09:01:03.593Z,845.78
2018-01-06T09:02:03.467Z,845.82
2018-01-06T09:03:03.337Z,845.90
2018-01-06T09:04:03.208Z,845.87
2018-01-06T09:05:03.083Z,845.89
2018-01-06T09:06:02.953Z,845.87
2018-01-06T09:07:02.827Z,845.89
2018-01-06T09:08:02.700Z,845.83
2018-01-06T09:09:02.573Z,845.87
2018-01-06T09:10:02.448Z,845.85
2018-01-06T09:11:02.318Z,845.86
2018-01-06T09:12:02.193Z,845.87
2018-01-06T09:13:02.064Z,845.89
2018-01-06T09:14:01.938Z,845.91
2018-01-06T09:15:01.811Z,845.91
2018-01-06T09:16:01.684Z,845.95
2018-01-06T09:17:01.556Z,845.94
2018-01-06T09:18:01.429Z,845.99
2018-01-06T09:19:01.302Z,846.01
2018-01-06T09:20:01.173Z,846.05
2018-01-06T09:21:01.048Z,846.09
2018-01-06T09:22:00.922Z,846.06
2018-01-06T09:23:00.794Z,846.03
2018-01-06T09:24:00.667Z,846.00
2018-01-06T09:25:00.540Z,846.01
2018-01-06T09:26:00.413Z,846.03
2018-01-06T09:27:00.287Z,846.10
2018-01-06T09:28:00.158Z,846.14
2018-01-06T09:29:00.034Z,846.16
2018-01-06T09:29:59.929Z,846.16
2018-01-06T09:30:59.778Z,846.12
2018-01-06T09:31:59.651Z,846.14
2018-01-06T09:32:59.529Z,846.17
2018-01-06T09:33:59.398Z,846.12
2018-01-06T09:34:59.272Z,846.13
2018-01-06T09:35:59.148Z,846.17
2018-01-06T09:36:59.018Z,846.15
2018-01-06T09:37:58.892Z,846.18
2018-01-06T09:38:58.765Z,846.19
2018-01-06T09:39:58.638Z,846.23
2018-01-06T09:40:58.512Z,846.19
2018-01-06T09:41:58.387Z,846.19
2018-01-06T09:42:58.259Z,846.22
2018-01-06T09:43:58.136Z,846.22
2018-01-06T09:44:58.006Z,846.27
2018-01-06T09:45:57.880Z,846.27
2018-01-06T09:46:57.754Z,846.26
2018-01-06T09:47:57.627Z,846.26
2018-01-06T09:48:57.502Z,846.26
2018-01-06T09:49:57.372Z,846.26
2018-01-06T09:50:57.248Z,846.23
2018-01-06T09:51:57.122Z,846.22
2018-01-06T09:52:56.996Z,846.23
2018-01-06T09:53:56.872Z,846.23
2018-01-06T09:54:56.746Z,846.25
2018-01-06T09:55:56.658Z,846.24
2018-01-06T09:56:56.491Z,846.27
2018-01-06T09:57:56.366Z,846.28
2018-01-06T09:58:56.241Z,846.25
2018-01-06T09:59:56.118Z,846.25
2018-01-06T10:00:55.988Z,846.26
2018-01-06T10:01:55.864Z,846.25
2018-01-06T10:02:55.737Z,846.21
2018-01-06T10:03:55.617Z,846.26
2018-01-06T10:04:55.507Z,846.23
2018-01-06T10:05:55.363Z,846.23
2018-01-06T10:06:55.237Z,846.17
2018-01-06T10:07:55.112Z,846.18
2018-01-06T10:08:54.985Z,846.15
2018-01-06T10:09:54.865Z,846.17
2018-01-06T10:10:54.735Z,846.14
2018-01-06T10:11:54.611Z,846.20
2018-01-06T10:12:54.484Z,846.19
2018-01-06T10:13:54.360Z,846.22
2018-01-06T10:14:54.233Z,846.22
2018-01-06T10:15:54.109Z,846.20
2018-01-06T10:16:53.984Z,846.20
2018-01-06T10:17:53.858Z,846.22
2018-01-06T10:18:53.732Z,846.25
2018-01-06T10:19:53.609Z,846.21
2018-01-06T10:20:53.483Z,846.24
2018-01-06T10:21:53.363Z,846.22
2018-01-06T10:22:53.229Z,846.28
2018-01-06T10:23:53.104Z,846.33
2018-01-06T10:24:52.976Z,846.30
2018-01-06T10:25:52.855Z,846.30
2018-01-06T10:26:52.729Z,846.29
2018-01-06T10:27:52.608Z,846.23
2018-01-06T10:28:52.476Z,846.18
2018-01-06T10:29:52.353Z,846.21
2018-01-06T10:30:52.226Z,846.22
2018-01-06T10:31:52.100Z,846.24
2018-01-06T10:32:51.974Z,846.22
2018-01-06T10:33:51.848Z,846.23
2018-01-06T10:34:51.721Z,846.26
2018-01-06T10:35:51.598Z,846.23
2018-01-06T10:36:51.475Z,846.30
2018-01-06T10:37:51.345Z,846.25
2018-01-06T10:38:51.221Z,846.31
2018-01-06T10:39:51.095Z,846.32
2018-01-06T10:40:50.969Z,846.26
2018-01-06T10:41:50.841Z,846.28
2018-01-06T10:42:50.717Z,846.30
2018-01-06T10:43:50.591Z,846.32
2018-01-06T10:44:50.465Z,846.32
2018-01-06T10:45:50.339Z,846.35
2018-01-06T10:46:50.213Z,846.30
2018-01-06T10:47:50.087Z,846.29
2018-01-06T10:48:49.962Z,846.25
2018-01-06T10:49:49.842Z,846.26
2018-01-06T10:50:49.710Z,846.30
2018-01-06T10:51:49.585Z,846.35
2018-01-06T10:52:49.462Z,846.38
2018-01-06T10:53:49.335Z,846.38
2018-01-06T10:54:49.209Z,846.38
2018-01-06T10:55:49.088Z,846.36
2018-01-06T10:56:48.963Z,846.37
2018-01-06T10:57:48.867Z,846.36
2018-01-06T10:58:48.710Z,846.34
2018-01-06T10:59:48.585Z,846.36
2018-01-06T11:00:48.460Z,846.35
2018-01-06T11:01:48.334Z,846.38
2018-01-06T11:02:48.212Z,846.40
2018-01-06T11:03:48.088Z,846.37
2018-01-06T11:04:47.963Z,846.45
2018-01-06T11:05:47.834Z,846.50
2018-01-06T11:06:47.715Z,846.47
2018-01-06T11:07:47.588Z,846.50
2018-01-06T11:08:47.462Z,846.48
2018-01-06T11:09:47.379Z,846.51
2018-01-06T11:10:47.216Z,846.54
2018-01-06T11:11:47.094Z,846.56
2018-01-06T11:12:46.966Z,846.60
2018-01-06T11:13:46.842Z,846.58
2018-01-06T11:14:46.719Z,846.63
2018-01-06T11:15:46.600Z,846.63
2018-01-06T11:16:46.468Z,846.63
2018-01-06T11:17:46.347Z,846.66
2018-01-06T11:18:46.221Z,846.69
2018-01-06T11:19:46.096Z,846.71
2018-01-06T11:20:45.973Z,846.70
2018-01-06T11:21:45.847Z,846.75
2018-01-06T11:22:45.727Z,846.72
2018-01-06T11:23:45.603Z,846.69
2018-01-06T11:24:45.535Z,846.69
2018-01-06T11:25:45.433Z,846.66
2018-01-06T11:26:45.373Z,846.65
2018-01-06T11:27:45.210Z,846.65
2018-01-06T11:28:45.108Z,846.68
2018-01-06T11:29:44.863Z,846.66
2018-01-06T11:30:44.733Z,846.71
2018-01-06T11:31:44.606Z,846.74
2018-01-06T11:32:44.480Z,846.79
2018-01-06T11:33:44.357Z,846.78
2018-01-06T11:34:44.239Z,846.77
2018-01-06T11:35:44.110Z,846.69
2018-01-06T11:36:43.987Z,846.64
2018-01-06T11:37:43.963Z,846.62
2018-01-06T11:38:43.737Z,846.64
2018-01-06T11:39:43.613Z,846.58
2018-01-06T11:40:43.488Z,846.62
2018-01-06T11:41:43.364Z,846.60
2018-01-06T11:42:43.240Z,846.58
2018-01-06T11:43:43.118Z,846.61
2018-01-06T11:44:42.992Z,846.58
2018-01-06T11:45:42.871Z,846.56
2018-01-06T11:46:42.744Z,846.58
2018-01-06T11:47:42.623Z,846.57
2018-01-06T11:48:42.498Z,846.57
2018-01-06T11:49:42.388Z,846.57
2018-01-06T11:50:42.252Z,846.58
2018-01-06T11:51:42.127Z,846.61
2018-01-06T11:52:42.006Z,846.60
2018-01-06T11:53:41.884Z,846.56
2018-01-06T11:54:41.759Z,846.59
2018-01-06T11:55:41.651Z,846.60
2018-01-06T11:56:41.521Z,846.58
2018-01-06T11:57:41.388Z,846.59
2018-01-06T11:58:41.266Z,846.55
2018-01-06T11:59:41.142Z,846.52
2018-01-06T12:00:41.024Z,846.55
2018-01-06T12:01:40.896Z,846.60
2018-01-06T12:02:40.777Z,846.56
2018-01-06T12:03:40.651Z,846.60
2018-01-06T12:04:40.528Z,846.58
2018-01-06T12:05:40.404Z,846.57
2018-01-06T12:06:40.292Z,846.55
2018-01-06T12:07:40.159Z,846.59
2018-01-06T12:08:40.037Z,846.57
2018-01-06T12:09:39.914Z,846.56
2018-01-06T12:10:39.814Z,846.50
2018-01-06T12:11:39.667Z,846.50
2018-01-06T12:12:39.548Z,846.47
2018-01-06T12:13:39.421Z,846.46
2018-01-06T12:14:39.298Z,846.45
2018-01-06T12:15:39.174Z,846.43
2018-01-06T12:16:39.086Z,846.40
2018-01-06T12:17:38.955Z,846.43
2018-01-06T12:18:38.806Z,846.41
2018-01-06T12:19:38.680Z,846.43
2018-01-06T12:20:38.557Z,846.43
2018-01-06T12:21:38.430Z,846.39
2018-01-06T12:22:38.308Z,846.42
2018-01-06T12:23:38.183Z,846.40
2018-01-06T12:24:38.061Z,846.43
2018-01-06T12:25:37.938Z,846.40
2018-01-06T12:26:37.812Z,846.43